CheckWX is a tool to help pilots better visualize weather data.  It is not intended as a substitute for an official pre-flight weather briefing.

15:44:25 UTC

VIDP TAF
Indira Gandhi International Airport
New Delhi, India
TAF VIDP 171400Z 1715/1724 09004KT 2200 FU NSC BECMG 1722/1724 00000KT 1500 BR

Oct-17@
15:00 UTC

Oct-17 @ 15:00 UTC

Oct-17@
22:00 UTC

Oct-17 @ 22:00 UTC

TAF VIDP 171400Z 1715/1724 09004KT 2200 FU NSC
Wind
  • 090° at 4 KTS
Conditions
Smoke
Cloud Levels
  • No significant clouds

Oct-17@
22:00 UTC

Oct-17 @ 22:00 UTC

Oct-18@
00:00 UTC

Oct-18 @ 00:00 UTC

BECMG 1722/1724 00000KT 1500 BR

Becoming

Becoming Conditions expected by Fri, Oct 18, 2019 @ 00:00 UTC

Conditions
Mist
Cloud Levels
  • No significant clouds